Time;durP1;ratioP1;P1;durP2;ratioP2;P2;SDS_P1;SDS_P2;PMS_P1;PMS_P2;Temp;Humidity;BMP_temperature;BMP_pressure;BME280_temperature;BME280_humidity;BME280_pressure;Samples;Min_cycle;Max_cycle;Signal;HPM_P1;HPM_P2
2022/09/09 00:00:25;;;;;;;4.32;1.40;;;;;;;19.72;68.93;98337.19;4465534;32;20101;-81
2022/09/09 00:03:32;;;;;;;4.72;1.40;;;;;;;19.21;70.70;98343.97;4470512;32;20136;-81
2022/09/09 00:06:11;;;;;;;2.53;1.20;;;;;;;19.37;71.25;98348.63;4471484;32;20085;-81
2022/09/09 00:09:02;;;;;;;2.87;1.30;;;;;;;19.15;71.44;98350.72;4471447;32;20085;-81
2022/09/09 00:11:41;;;;;;;4.03;1.40;;;;;;;19.40;70.67;98335.81;4471835;32;20132;-81
2022/09/09 00:14:34;;;;;;;3.58;1.42;;;;;;;19.23;70.82;98336.62;4470660;32;20093;-81
2022/09/09 00:17:13;;;;;;;4.10;1.30;;;;;;;19.17;71.58;98335.41;4470349;32;20156;-82
2022/09/09 00:19:42;;;;;;;;;;;;;;;19.28;71.35;98338.84;4471868;32;20185;-81
2022/09/09 00:22:18;;;;;;;4.22;1.40;;;;;;;19.29;70.87;98349.38;4471444;32;20266;-82
2022/09/09 00:24:46;;;;;;;2.95;1.20;;;;;;;19.05;72.12;98349.94;4471507;32;20403;-81
2022/09/09 00:27:37;;;;;;;4.07;1.30;;;;;;;18.83;72.56;98351.16;4471456;32;20179;-82
2022/09/09 00:30:23;;;;;;;4.47;1.50;;;;;;;18.98;72.04;98349.69;4470315;32;20119;-81
2022/09/09 00:32:54;;;;;;;4.68;1.60;;;;;;;19.17;71.58;98354.09;4470491;32;20153;-80
2022/09/09 00:35:22;;;;;;;4.10;1.62;;;;;;;19.49;69.90;98354.59;4471620;32;20104;-81
2022/09/09 00:37:50;;;;;;;5.50;1.80;;;;;;;19.52;69.50;98354.31;4471259;32;20136;-81
2022/09/09 00:40:40;;;;;;;6.28;1.73;;;;;;;19.42;70.46;98357.88;4470161;32;20464;-80
2022/09/09 00:43:31;;;;;;;4.47;1.70;;;;;;;19.13;71.98;98357.22;4471326;32;20113;-81
2022/09/09 00:46:10;;;;;;;4.45;1.87;;;;;;;19.63;69.68;98367.47;4470037;32;20130;-81
2022/09/09 00:49:13;;;;;;;5.87;1.73;;;;;;;19.21;72.03;98371.50;4471355;32;20464;-81
2022/09/09 00:52:06;;;;;;;4.55;1.52;;;;;;;19.35;71.65;98370.16;4394548;32;20196;-81
2022/09/09 00:54:58;;;;;;;4.28;1.70;;;;;;;19.66;70.00;98359.12;4407298;32;20445;-81
2022/09/09 00:57:31;;;;;;;4.68;1.73;;;;;;;19.90;68.47;98344.34;4407186;32;20454;-81
2022/09/09 01:00:20;;;;;;;4.43;1.62;;;;;;;19.67;69.47;98355.47;4407046;32;20175;-81
2022/09/09 01:03:07;;;;;;;4.78;1.67;;;;;;;19.67;69.77;98365.31;4407443;32;20098;-81
2022/09/09 01:05:34;;;;;;;4.40;1.87;;;;;;;19.27;71.87;98370.06;4407114;32;20082;-81
2022/09/09 01:08:14;;;;;;;5.90;1.80;;;;;;;19.11;72.33;98376.06;4394605;32;20556;-81
2022/09/09 01:10:47;;;;;;;4.82;1.70;;;;;;;19.70;69.95;98378.37;4407079;32;20128;-81
2022/09/09 01:13:23;;;;;;;6.80;1.85;;;;;;;19.81;69.35;98389.69;4407377;32;20098;-80
2022/09/09 01:15:48;;;;;;;5.37;1.87;;;;;;;19.57;70.35;98382.25;4407105;32;20456;-81
2022/09/09 01:18:17;;;;;;;4.35;1.52;;;;;;;19.62;70.23;98379.13;4406824;32;20130;-81
2022/09/09 01:20:42;;;;;;;8.65;2.08;;;;;;;19.61;69.73;98375.63;4394175;32;20118;-81
2022/09/09 01:23:14;;;;;;;4.70;1.80;;;;;;;18.96;72.70;98381.03;4406935;32;20172;-81
2022/09/09 01:26:16;;;;;;;4.75;1.80;;;;;;;19.30;71.64;98385.81;4406920;32;20674;-81
2022/09/09 01:28:49;;;;;;;5.32;2.10;;;;;;;19.18;72.24;98387.84;4446442;32;20460;-81
2022/09/09 01:31:57;;;;;;;5.15;1.58;;;;;;;18.78;74.52;98386.28;4455147;32;20120;-82
2022/09/09 01:34:26;;;;;;;5.07;1.90;;;;;;;18.95;73.63;98384.69;4456780;32;20149;-81
2022/09/09 01:37:07;;;;;;;5.10;1.98;;;;;;;18.97;72.74;98384.56;4456980;32;20112;-81
2022/09/09 01:39:35;;;;;;;5.40;1.75;;;;;;;19.14;72.09;98386.44;4455894;32;20554;-81
2022/09/09 01:42:01;;;;;;;5.45;1.90;;;;;;;18.80;73.71;98378.16;4455813;32;20562;-81
2022/09/09 01:44:27;;;;;;;6.05;1.77;;;;;;;18.62;74.17;98375.34;4456106;32;20123;-81
2022/09/09 01:46:52;;;;;;;4.65;1.80;;;;;;;18.52;75.02;98387.88;4457257;32;20089;-80
2022/09/09 01:49:18;;;;;;;6.62;2.10;;;;;;;18.64;74.49;98376.06;4457037;32;20094;-81
2022/09/09 01:51:45;;;;;;;5.95;2.10;;;;;;;18.92;73.39;98368.13;4457227;32;20105;-81
2022/09/09 01:54:10;;;;;;;5.80;1.87;;;;;;;18.28;76.73;98383.88;4455696;32;20097;-80
2022/09/09 01:56:55;;;;;;;4.68;2.00;;;;;;;18.67;74.07;98384.59;4455680;32;20089;-81
2022/09/09 01:59:50;;;;;;;5.20;1.80;;;;;;;18.90;72.52;98386.13;4458155;32;20093;-81
2022/09/09 02:02:15;;;;;;;4.15;1.40;;;;;;;18.70;72.98;98387.97;4488190;32;20165;-80
2022/09/09 02:04:43;;;;;;;4.30;1.45;;;;;;;18.57;72.56;98385.63;4473716;32;20100;-80
2022/09/09 02:07:15;;;;;;;3.78;1.37;;;;;;;18.75;71.57;98369.72;4473874;32;20092;-80
2022/09/09 02:09:42;;;;;;;3.22;1.10;;;;;;;18.62;71.41;98370.00;4488170;32;20096;-80
2022/09/09 02:12:11;;;;;;;2.85;1.30;;;;;;;18.69;71.08;98372.97;4473879;32;20109;-81
2022/09/09 02:14:42;;;;;;;7.35;1.60;;;;;;;18.58;71.21;98379.31;4487881;32;20141;-81
2022/09/09 02:17:11;;;;;;;3.28;1.37;;;;;;;18.34;72.58;98383.28;4488162;32;20076;-81
2022/09/09 02:19:39;;;;;;;3.08;1.40;;;;;;;18.54;72.17;98372.56;4488005;32;20448;-80
2022/09/09 02:22:05;;;;;;;4.28;1.33;;;;;;;18.71;71.23;98376.31;4473758;32;20100;-80
2022/09/09 02:24:33;;;;;;;5.35;1.55;;;;;;;18.83;70.52;98367.16;4473690;32;20368;-81
2022/09/09 02:27:01;;;;;;;3.17;1.30;;;;;;;18.17;73.63;98371.50;4473601;32;20382;-81
2022/09/09 02:29:33;;;;;;;2.67;1.20;;;;;;;18.55;71.49;98368.94;4487931;32;20425;-81
2022/09/09 02:32:02;;;;;;;4.43;1.70;;;;;;;18.38;72.11;98365.19;4473563;32;20094;-80
2022/09/09 02:34:28;;;;;;;4.03;1.42;;;;;;;18.01;73.52;98373.94;4460613;32;20107;-80
2022/09/09 02:36:55;;;;;;;3.60;1.30;;;;;;;18.52;71.05;98367.38;4473435;32;20103;-80
2022/09/09 02:39:20;;;;;;;2.45;1.10;;;;;;;18.76;70.20;98369.56;4487775;32;20096;-81
2022/09/09 02:41:47;;;;;;;2.60;1.10;;;;;;;18.59;70.72;98373.00;4487337;32;20144;-80
2022/09/09 02:44:15;;;;;;;2.70;1.08;;;;;;;18.66;69.66;98374.09;4473184;32;20115;-80
2022/09/09 02:47:06;;;;;;;3.33;0.93;;;;;;;18.42;70.88;98374.56;4473633;32;20140;-80
2022/09/09 02:49:32;;;;;;;3.83;1.10;;;;;;;18.99;68.15;98380.75;4488051;32;20131;-80
2022/09/09 02:52:03;;;;;;;2.10;1.02;;;;;;;18.83;68.39;98375.19;4487723;32;20447;-80
2022/09/09 02:54:31;;;;;;;2.75;1.00;;;;;;;18.93;67.99;98378.66;4460376;32;20088;-80
2022/09/09 02:57:04;;;;;;;3.10;1.15;;;;;;;18.97;67.12;98382.72;4473530;32;20092;-80
2022/09/09 02:59:30;;;;;;;4.03;1.00;;;;;;;19.04;67.00;98389.16;4473232;32;20175;-80
2022/09/09 03:01:56;;;;;;;2.10;1.00;;;;;;;19.18;66.34;98382.50;4487799;32;20096;-80
2022/09/09 03:04:21;;;;;;;3.40;1.20;;;;;;;18.98;67.01;98392.41;4487612;32;20397;-81
2022/09/09 03:06:46;;;;;;;2.22;0.90;;;;;;;19.30;65.87;98390.31;4487478;32;20115;-81
2022/09/09 03:09:12;;;;;;;2.60;1.12;;;;;;;19.68;64.79;98388.38;4487513;32;20134;-81
2022/09/09 03:11:38;;;;;;;2.75;1.20;;;;;;;19.81;64.20;98400.37;4473242;32;20124;-81
2022/09/09 03:14:04;;;;;;;3.97;1.40;;;;;;;19.92;63.93;98399.34;4487679;32;20080;-81
2022/09/09 03:16:30;;;;;;;3.60;1.45;;;;;;;19.69;65.20;98412.28;4487429;32;20136;-81
2022/09/09 03:18:55;;;;;;;4.43;1.40;;;;;;;19.68;64.77;98409.75;4487407;32;20084;-81
2022/09/09 03:21:21;;;;;;;4.80;1.73;;;;;;;19.91;64.74;98412.84;4487634;32;20115;-81
2022/09/09 03:23:46;;;;;;;5.18;1.20;;;;;;;20.07;64.12;98412.16;4487472;32;20475;-81
2022/09/09 03:26:14;;;;;;;3.25;1.20;;;;;;;20.21;63.63;98407.13;4487447;32;20361;-81
2022/09/09 03:28:40;;;;;;;3.83;1.33;;;;;;;20.19;63.14;98406.44;4487505;32;20127;-81
2022/09/09 03:31:10;;;;;;;3.62;1.45;;;;;;;20.13;62.87;98408.91;4487464;32;20092;-80
2022/09/09 03:33:36;;;;;;;4.97;1.23;;;;;;;20.14;63.16;98413.22;4487483;32;20163;-80
2022/09/09 03:36:02;;;;;;;3.05;1.33;;;;;;;20.17;62.98;98413.78;4473057;32;20141;-80
2022/09/09 03:38:28;;;;;;;3.75;1.37;;;;;;;20.15;63.11;98410.41;4473013;32;20109;-80
2022/09/09 03:40:55;;;;;;;3.37;1.20;;;;;;;20.28;62.89;98411.84;4487592;32;20432;-80
2022/09/09 03:43:25;;;;;;;3.30;1.30;;;;;;;20.25;62.89;98406.81;4473166;32;20454;-81
2022/09/09 03:45:51;;;;;;;5.30;1.25;;;;;;;20.30;62.59;98407.16;4487401;32;20084;-80
2022/09/09 03:48:17;;;;;;;3.45;1.30;;;;;;;20.31;62.38;98409.69;4473167;32;20100;-79
2022/09/09 03:50:50;;;;;;;2.97;1.20;;;;;;;20.16;62.65;98405.91;4487380;32;20118;-80
2022/09/09 03:53:17;;;;;;;4.47;1.45;;;;;;;20.04;63.05;98418.66;4472919;32;20148;-80
2022/09/09 03:55:47;;;;;;;4.72;1.23;;;;;;;19.83;63.25;98422.47;4473367;32;20079;-79
2022/09/09 03:58:14;;;;;;;2.55;1.00;;;;;;;19.94;62.89;98425.94;4487461;32;20145;-79
2022/09/09 04:00:42;;;;;;;3.53;1.00;;;;;;;19.88;62.49;98423.87;4473000;32;20112;-81
2022/09/09 04:03:11;;;;;;;4.32;1.12;;;;;;;20.11;61.81;98411.72;4487583;32;20149;-81
2022/09/09 04:05:39;;;;;;;3.50;1.12;;;;;;;19.44;63.63;98421.84;4473214;32;20145;-81
2022/09/09 04:08:08;;;;;;;3.15;1.20;;;;;;;18.98;65.77;98423.59;4487492;32;20115;-81
2022/09/09 04:10:36;;;;;;;3.37;1.40;;;;;;;18.77;67.19;98427.28;4487433;32;20463;-81
2022/09/09 04:13:01;;;;;;;;;;;;;;;19.14;65.97;98425.63;4487697;32;20092;-81
2022/09/09 04:15:27;;;;;;;2.97;1.00;;;;;;;18.66;67.25;98424.78;4473299;32;20266;-81
2022/09/09 04:17:52;;;;;;;2.92;1.27;;;;;;;19.24;64.74;98421.94;4487355;32;20115;-81
2022/09/09 04:20:19;;;;;;;2.90;1.15;;;;;;;19.40;64.35;98417.78;4472806;32;20104;-81
2022/09/09 04:22:44;;;;;;;2.47;1.10;;;;;;;19.21;65.00;98421.41;4487017;32;20080;-81
2022/09/09 04:25:10;;;;;;;6.45;1.10;;;;;;;19.27;64.37;98425.31;4487072;32;20076;-81
2022/09/09 04:27:35;;;;;;;3.65;1.25;;;;;;;19.08;65.42;98427.06;4472863;32;20507;-81
2022/09/09 04:30:01;;;;;;;4.32;1.20;;;;;;;18.80;66.95;98413.69;4486972;32;20089;-81
2022/09/09 04:32:26;;;;;;;2.90;1.10;;;;;;;19.27;64.78;98417.28;4459680;32;20123;-81
2022/09/09 04:34:52;;;;;;;3.92;1.25;;;;;;;19.39;64.27;98416.97;4487133;32;20080;-81
2022/09/09 04:37:17;;;;;;;3.20;1.30;;;;;;;19.27;64.76;98411.97;4486829;32;20085;-81
2022/09/09 04:39:43;;;;;;;4.25;1.40;;;;;;;19.14;65.48;98412.28;4472689;32;20496;-81
2022/09/09 04:42:08;;;;;;;3.30;1.10;;;;;;;19.32;64.76;98417.72;4486902;32;20142;-81
2022/09/09 04:44:34;;;;;;;2.33;1.05;;;;;;;19.48;63.83;98417.06;4487022;32;20114;-81
2022/09/09 04:46:59;;;;;;;4.03;1.10;;;;;;;19.65;63.51;98411.72;4486854;32;20136;-81
2022/09/09 04:49:25;;;;;;;4.25;1.30;;;;;;;19.72;63.28;98417.38;4486892;32;20085;-81
2022/09/09 04:51:51;;;;;;;1.95;1.05;;;;;;;20.04;62.46;98410.63;4472683;32;20447;-81
2022/09/09 04:54:17;;;;;;;3.65;1.33;;;;;;;20.13;62.31;98412.41;4487074;32;20084;-81
2022/09/09 04:56:43;;;;;;;4.85;1.48;;;;;;;19.56;63.96;98412.62;4486789;32;20128;-82
2022/09/09 04:59:09;;;;;;;3.33;1.20;;;;;;;19.97;62.79;98415.78;4486753;32;20081;-80
2022/09/09 05:01:35;;;;;;;3.47;1.30;;;;;;;20.15;62.32;98410.41;4472679;32;20080;-80
2022/09/09 05:04:02;;;;;;;2.40;1.10;;;;;;;20.27;61.48;98416.34;4486893;32;20194;-80
2022/09/09 05:06:31;;;;;;;2.23;1.10;;;;;;;20.21;61.83;98425.00;4471722;32;20100;-80
2022/09/09 05:08:57;;;;;;;4.30;1.12;;;;;;;20.44;61.10;98422.69;4486759;32;20176;-81
2022/09/09 05:11:28;;;;;;;3.47;1.10;;;;;;;20.27;61.60;98427.06;4472684;32;20080;-81
2022/09/09 05:13:54;;;;;;;2.55;1.05;;;;;;;20.17;61.52;98428.97;4486565;32;20674;-82
2022/09/09 05:16:20;;;;;;;2.35;0.98;;;;;;;20.14;61.80;98431.94;4486568;32;20168;-81
2022/09/09 05:18:46;;;;;;;4.70;1.42;;;;;;;19.83;62.62;98433.16;4486513;32;20118;-81
2022/09/09 05:21:13;;;;;;;4.03;1.30;;;;;;;20.14;62.04;98422.09;4486509;32;20460;-81
2022/09/09 05:23:39;;;;;;;4.55;1.55;;;;;;;19.64;64.21;98431.44;4486520;32;20080;-81
2022/09/09 05:26:05;;;;;;;4.68;1.67;;;;;;;19.38;64.68;98433.97;4472196;32;20131;-82
2022/09/09 05:28:31;;;;;;;3.03;1.12;;;;;;;19.74;63.90;98430.53;4486429;32;20096;-80
2022/09/09 05:31:12;;;;;;;4.85;1.37;;;;;;;19.59;64.33;98432.88;4472253;32;20107;-81
2022/09/09 05:33:40;;;;;;;2.85;1.20;;;;;;;19.84;63.21;98434.84;4486413;32;20106;-81
2022/09/09 05:36:13;;;;;;;5.03;1.50;;;;;;;19.89;63.48;98433.56;4486312;32;20160;-80
2022/09/09 05:38:39;;;;;;;3.22;1.30;;;;;;;19.75;64.12;98434.91;4486324;32;20498;-80
2022/09/09 05:41:05;;;;;;;5.65;1.62;;;;;;;20.00;63.20;98430.66;4471996;32;20111;-81
2022/09/09 05:43:32;;;;;;;5.30;1.70;;;;;;;19.93;63.63;98438.44;4486148;32;20168;-80
2022/09/09 05:46:08;;;;;;;4.28;1.40;;;;;;;19.61;64.24;98431.72;4472103;32;20139;-81
2022/09/09 05:48:41;;;;;;;3.47;1.50;;;;;;;19.52;65.48;98429.13;4486233;32;20573;-80
2022/09/09 05:51:08;;;;;;;3.85;1.52;;;;;;;19.86;63.88;98428.50;4471916;32;20107;-79
2022/09/09 05:53:34;;;;;;;4.35;1.55;;;;;;;20.07;63.31;98422.84;4486206;32;20072;-80
2022/09/09 05:56:01;;;;;;;3.25;1.45;;;;;;;19.47;65.45;98429.56;4471467;32;20199;-80
2022/09/09 05:58:27;;;;;;;4.32;1.70;;;;;;;19.84;64.22;98437.53;4486049;32;20100;-80
2022/09/09 06:00:53;;;;;;;4.68;1.70;;;;;;;19.95;63.24;98439.16;4485757;32;20450;-80
2022/09/09 06:03:23;;;;;;;4.65;1.62;;;;;;;20.42;62.04;98433.53;4485958;32;20360;-81
2022/09/09 06:05:57;;;;;;;5.32;1.48;;;;;;;20.62;61.85;98434.22;4485855;32;20162;-82
2022/09/09 06:08:22;;;;;;;4.87;1.52;;;;;;;20.71;61.10;98440.47;4471611;32;20131;-82
2022/09/09 06:10:48;;;;;;;4.80;1.75;;;;;;;21.06;60.42;98443.22;4471841;32;20119;-82
2022/09/09 06:13:13;;;;;;;5.20;1.60;;;;;;;21.35;59.08;98432.94;4485646;32;20382;-82
2022/09/09 06:15:39;;;;;;;3.30;1.30;;;;;;;21.55;58.47;98432.72;4486138;32;20377;-80
2022/09/09 06:18:04;;;;;;;4.18;1.42;;;;;;;21.45;58.60;98437.38;4487168;32;20084;-81
2022/09/09 06:20:30;;;;;;;5.70;1.50;;;;;;;21.39;58.60;98439.66;4485598;31;20482;-84
2022/09/09 06:22:55;;;;;;;3.90;1.83;;;;;;;21.79;58.64;98440.84;4494578;31;20107;-83
2022/09/09 06:25:24;;;;;;;4.00;2.08;;;;;;;21.68;59.58;98443.81;4490385;31;20720;-83
2022/09/09 06:27:50;;;;;;;5.18;1.95;;;;;;;22.14;58.36;98444.25;4482294;31;20155;-82
2022/09/09 06:30:17;;;;;;;3.40;1.37;;;;;;;21.68;59.17;98448.34;4490692;31;20084;-84
2022/09/09 06:32:42;;;;;;;5.28;1.80;;;;;;;22.10;58.31;98448.28;4484691;31;20079;-84
2022/09/09 06:35:08;;;;;;;6.55;1.80;;;;;;;22.72;56.49;98452.34;4491724;31;20118;-83
2022/09/09 06:37:33;;;;;;;5.90;1.70;;;;;;;22.07;57.93;98453.97;4496864;31;20089;-84
2022/09/09 06:39:59;;;;;;;3.70;1.48;;;;;;;22.56;56.45;98453.19;4478233;32;20084;-84
2022/09/09 06:42:24;;;;;;;7.93;1.70;;;;;;;22.37;56.96;98454.37;4500055;31;20080;-84
2022/09/09 06:44:49;;;;;;;6.15;1.50;;;;;;;22.58;57.04;98446.66;4489480;31;20131;-83
2022/09/09 06:47:15;;;;;;;2.95;1.37;;;;;;;22.41;57.78;98447.66;4497492;31;20092;-83
2022/09/09 06:49:40;;;;;;;2.58;1.50;;;;;;;22.27;57.85;98451.84;4495144;31;20099;-83
2022/09/09 06:52:06;;;;;;;5.47;1.58;;;;;;;22.84;55.58;98455.53;4491742;31;20123;-83
2022/09/09 06:54:31;;;;;;;2.92;1.30;;;;;;;22.82;56.55;98446.78;4500196;31;20116;-83
2022/09/09 06:56:57;;;;;;;7.43;1.55;;;;;;;22.65;56.75;98459.41;4490245;31;20099;-83
2022/09/09 06:59:22;;;;;;;5.15;1.58;;;;;;;23.11;55.37;98452.47;4496499;31;20123;-83
2022/09/09 07:01:48;;;;;;;5.78;1.60;;;;;;;22.92;55.62;98456.34;4495794;31;20083;-84
2022/09/09 07:04:13;;;;;;;5.28;1.55;;;;;;;22.84;55.80;98463.56;4491033;31;20107;-84
2022/09/09 07:06:42;;;;;;;3.50;1.50;;;;;;;23.00;55.15;98455.47;4499788;31;20117;-82
2022/09/09 07:09:10;;;;;;;4.35;1.40;;;;;;;22.81;55.73;98461.22;4491753;31;20092;-81
2022/09/09 07:11:41;;;;;;;3.15;1.40;;;;;;;22.87;56.09;98472.12;4485373;31;20076;-81
2022/09/09 07:14:07;;;;;;;5.32;1.73;;;;;;;22.77;55.67;98480.38;4496084;31;20095;-81
2022/09/09 07:16:36;;;;;;;6.97;1.73;;;;;;;22.63;56.22;98470.28;4485369;31;20130;-81
2022/09/09 07:19:03;;;;;;;5.45;1.25;;;;;;;22.40;57.95;98469.28;4490836;31;20131;-81
2022/09/09 07:21:29;;;;;;;5.35;1.70;;;;;;;22.49;57.43;98474.50;4485592;32;20089;-81
2022/09/09 07:23:55;;;;;;;5.57;1.60;;;;;;;22.61;56.22;98472.31;4486019;32;20169;-82
2022/09/09 07:26:23;;;;;;;5.10;1.50;;;;;;;22.51;57.48;98464.44;4487022;31;20096;-81
2022/09/09 07:28:49;;;;;;;6.07;1.62;;;;;;;22.40;55.86;98462.06;4498846;31;20092;-82
2022/09/09 07:31:16;;;;;;;4.18;1.40;;;;;;;22.28;56.86;98469.63;4477786;31;20118;-82
2022/09/09 07:33:43;;;;;;;4.05;1.58;;;;;;;22.52;56.30;98474.19;4485267;32;20092;-82
2022/09/09 07:36:21;;;;;;;7.30;1.70;;;;;;;22.27;57.34;98475.16;4485638;32;20131;-81
2022/09/09 07:38:50;;;;;;;5.87;1.90;;;;;;;22.36;56.99;98480.34;4487589;31;20122;-80
2022/09/09 07:41:19;;;;;;;3.20;1.50;;;;;;;22.21;56.66;98476.63;4497018;31;20440;-81
2022/09/09 07:43:46;;;;;;;4.03;1.80;;;;;;;22.47;55.31;98473.84;4494882;31;20095;-81
2022/09/09 07:46:12;;;;;;;5.55;1.55;;;;;;;22.44;55.76;98479.53;4485423;32;20100;-81
2022/09/09 07:48:39;;;;;;;4.50;1.70;;;;;;;22.64;55.21;98480.03;4485395;32;20439;-89
2022/09/09 07:51:11;;;;;;;3.58;1.52;;;;;;;22.63;54.90;98485.56;4491285;31;20443;-79
2022/09/09 07:53:38;;;;;;;2.83;1.30;;;;;;;22.56;55.93;98480.88;4485151;32;20131;-79
2022/09/09 07:56:09;;;;;;;4.93;1.80;;;;;;;22.54;56.88;98492.78;4497007;31;20075;-79
2022/09/09 07:58:38;;;;;;;3.78;1.45;;;;;;;22.73;55.49;98484.37;4486074;31;20206;-80
2022/09/09 08:01:09;;;;;;;2.92;1.40;;;;;;;22.65;56.11;98487.06;4497907;31;20111;-80
2022/09/09 08:03:34;;;;;;;3.95;1.37;;;;;;;22.74;54.89;98493.28;4479593;31;20511;-79
2022/09/09 08:06:02;;;;;;;5.78;1.60;;;;;;;23.15;53.66;98482.53;4492054;31;20108;-79
2022/09/09 08:08:28;;;;;;;4.47;1.65;;;;;;;23.08;53.16;98485.06;4499420;31;20091;-80
2022/09/09 08:10:53;;;;;;;2.97;1.37;;;;;;;22.99;53.05;98479.84;4489721;31;20132;-79
2022/09/09 08:13:19;;;;;;;4.15;1.40;;;;;;;23.00;53.24;98487.72;4496238;31;20455;-80
2022/09/09 08:15:44;;;;;;;3.75;1.55;;;;;;;23.14;52.79;98486.19;4490142;31;20126;-79
2022/09/09 08:18:09;;;;;;;3.40;1.42;;;;;;;23.34;52.22;98474.06;4483109;31;20080;-81
2022/09/09 08:20:36;;;;;;;4.75;1.25;;;;;;;23.32;52.79;98488.69;4489016;31;20181;-81
2022/09/09 08:23:02;;;;;;;3.67;1.40;;;;;;;23.22;52.88;98485.34;4498172;31;20092;-81
2022/09/09 08:25:28;;;;;;;3.10;1.35;;;;;;;23.50;51.50;98485.78;4492620;31;20106;-81
2022/09/09 08:27:54;;;;;;;4.07;1.48;;;;;;;23.52;50.58;98479.19;4492372;31;20172;-82
2022/09/09 08:30:19;;;;;;;2.60;1.20;;;;;;;23.26;51.55;98492.09;4488341;31;20467;-81
2022/09/09 08:32:45;;;;;;;3.33;1.23;;;;;;;23.33;49.88;98487.66;4498950;31;20154;-81
2022/09/09 08:35:11;;;;;;;3.40;1.27;;;;;;;23.16;49.84;98487.72;4476444;31;20095;-82
2022/09/09 08:37:36;;;;;;;4.90;1.23;;;;;;;23.40;50.50;98477.91;4499384;31;20196;-83
2022/09/09 08:40:02;;;;;;;5.53;1.25;;;;;;;23.15;50.00;98487.88;4490521;31;20111;-82
2022/09/09 08:42:46;;;;;;;3.22;1.20;;;;;;;23.61;48.75;98489.94;4484832;31;20517;-82
2022/09/09 08:45:35;;;;;;;6.68;1.20;;;;;;;23.69;47.52;98487.22;4476638;31;20592;-82
2022/09/09 08:48:33;;;;;;;4.37;1.10;;;;;;;23.55;48.23;98483.41;4491624;31;20095;-82
2022/09/09 08:51:01;;;;;;;3.67;1.15;;;;;;;23.67;47.80;98490.06;4421618;32;20082;-81
2022/09/09 08:53:39;;;;;;;2.67;1.05;;;;;;;23.67;47.93;98495.44;4421872;32;20097;-81
2022/09/09 08:56:18;;;;;;;4.20;1.20;;;;;;;23.26;48.33;98502.81;4408244;32;20135;-81
2022/09/09 08:58:51;;;;;;;3.85;1.10;;;;;;;23.42;47.51;98501.94;4408802;32;20116;-80
2022/09/09 09:01:24;;;;;;;2.00;1.10;;;;;;;23.68;48.01;98494.44;4408706;32;20502;-80
2022/09/09 09:04:02;;;;;;;3.92;1.42;;;;;;;23.74;48.75;98491.06;4408419;32;20114;-81
2022/09/09 09:06:31;;;;;;;3.25;1.23;;;;;;;23.89;47.71;98493.03;4408506;32;20121;-81
2022/09/09 09:09:28;;;;;;;3.00;1.20;;;;;;;23.98;47.32;98488.44;4421658;32;20085;-81
2022/09/09 09:12:00;;;;;;;4.78;1.30;;;;;;;24.07;47.50;98488.22;4366137;32;20117;-81
2022/09/09 09:14:30;;;;;;;2.20;1.20;;;;;;;24.24;47.04;98485.41;4361256;32;20159;-82
2022/09/09 09:17:06;;;;;;;6.50;1.10;;;;;;;24.19;45.39;98483.25;4363859;32;20475;-81
2022/09/09 09:19:35;;;;;;;4.12;1.10;;;;;;;24.29;46.27;98488.41;4349417;32;20110;-82
2022/09/09 09:22:10;;;;;;;2.37;1.10;;;;;;;24.44;46.46;98488.47;4358300;32;20564;-81
2022/09/09 09:25:15;;;;;;;3.30;1.20;;;;;;;24.03;46.41;98483.34;4349632;32;20134;-81
2022/09/09 09:28:05;;;;;;;3.90;1.25;;;;;;;24.49;45.31;98480.69;4403340;32;20127;-82
2022/09/09 09:30:41;;;;;;;5.28;1.20;;;;;;;24.07;47.35;98485.53;4429872;32;20615;-81
2022/09/09 09:33:28;;;;;;;2.20;1.12;;;;;;;24.34;45.33;98472.56;4416889;32;20331;-82
2022/09/09 09:35:53;;;;;;;2.30;1.08;;;;;;;24.33;45.36;98470.88;4415392;32;20125;-81
2022/09/09 09:38:22;;;;;;;2.25;0.90;;;;;;;24.58;44.53;98466.16;4409278;32;20568;-80
2022/09/09 09:40:54;;;;;;;3.45;1.10;;;;;;;23.94;46.71;98469.13;4418540;32;20089;-81
2022/09/09 09:43:24;;;;;;;3.72;1.30;;;;;;;24.26;44.52;98460.00;4399347;32;20105;-81
2022/09/09 09:45:50;;;;;;;1.73;1.00;;;;;;;24.26;45.79;98460.00;4412459;32;20148;-82
2022/09/09 09:48:15;;;;;;;3.17;1.12;;;;;;;24.41;44.52;98461.91;4434309;32;20116;-80
2022/09/09 09:50:50;;;;;;;2.95;1.10;;;;;;;24.09;44.39;98470.03;4485314;32;20156;-81
2022/09/09 09:53:27;;;;;;;3.97;1.08;;;;;;;24.53;44.17;98472.12;4492430;31;20131;-82
2022/09/09 09:55:59;;;;;;;2.85;1.02;;;;;;;24.55;43.74;98482.72;4486429;32;20124;-81
2022/09/09 09:58:32;;;;;;;1.60;0.80;;;;;;;24.82;42.22;98467.81;4486523;31;20135;-80
2022/09/09 10:00:58;;;;;;;3.65;1.10;;;;;;;24.67;40.72;98475.88;4473474;32;20080;-81
2022/09/09 10:03:26;;;;;;;5.85;1.10;;;;;;;24.91;42.03;98480.19;4463938;31;20463;-83
2022/09/09 10:05:51;;;;;;;;;;;;;;;24.80;42.74;98475.25;4489191;31;20218;-84
2022/09/09 10:08:17;;;;;;;2.90;1.10;;;;;;;24.82;41.96;98465.12;4488806;31;19995;-84
2022/09/09 10:11:01;;;;;;;2.45;0.85;;;;;;;25.06;40.12;98464.03;4479206;31;20084;-83
2022/09/09 10:13:46;;;;;;;1.75;0.70;;;;;;;25.14;38.61;98476.59;4488559;31;20149;-82
2022/09/09 10:16:39;;;;;;;2.05;0.90;;;;;;;24.70;37.86;98469.25;4476319;32;20456;-82
2022/09/09 10:19:24;;;;;;;2.30;0.90;;;;;;;25.06;38.51;98465.91;4484872;31;20432;-82
2022/09/09 10:22:25;;;;;;;2.20;0.90;;;;;;;25.12;37.22;98465.97;4473549;32;20501;-83
2022/09/09 10:25:13;;;;;;;2.25;0.90;;;;;;;24.98;36.29;98464.13;4483900;32;20119;-83
2022/09/09 10:28:12;;;;;;;1.35;0.85;;;;;;;25.23;36.59;98456.66;4487333;31;20153;-84
2022/09/09 10:31:02;;;;;;;3.85;1.10;;;;;;;25.34;36.50;98457.19;4500293;31;20149;-84
2022/09/09 10:33:36;;;;;;;2.65;0.82;;;;;;;25.16;37.27;98460.22;4493979;31;20095;-82
2022/09/09 10:36:08;;;;;;;1.98;1.00;;;;;;;25.60;36.60;98460.25;4495330;31;20085;-83
2022/09/09 10:38:45;;;;;;;2.00;0.88;;;;;;;25.16;36.40;98474.53;4493462;31;20108;-83
2022/09/09 10:41:26;;;;;;;3.13;1.00;;;;;;;25.73;36.56;98464.97;4492909;31;20115;-83
2022/09/09 10:44:01;;;;;;;1.98;0.85;;;;;;;26.01;35.77;98458.88;4485796;32;20167;-82
2022/09/09 10:46:38;;;;;;;1.40;0.90;;;;;;;25.74;35.92;98463.09;4499773;31;20483;-83
2022/09/09 10:49:27;;;;;;;1.30;0.90;;;;;;;26.19;34.48;98455.75;4491451;31;20115;-83
2022/09/09 10:52:05;;;;;;;3.03;1.00;;;;;;;26.25;33.82;98457.66;4493554;31;20109;-83
2022/09/09 10:55:08;;;;;;;2.30;0.80;;;;;;;25.97;33.40;98452.19;4483950;31;20092;-85
2022/09/09 10:57:39;;;;;;;1.73;0.82;;;;;;;25.71;35.89;98467.03;4493182;31;20234;-86
2022/09/09 11:00:14;;;;;;;2.42;0.90;;;;;;;26.21;33.97;98459.09;4479689;32;20681;-83
2022/09/09 11:02:41;;;;;;;3.75;1.08;;;;;;;26.39;34.03;98455.97;4478288;32;20364;-86
2022/09/09 11:05:26;;;;;;;1.80;0.93;;;;;;;26.08;35.34;98462.50;4473803;32;20205;-87
2022/09/09 11:07:58;;;;;;;3.78;1.10;;;;;;;25.94;36.15;98452.56;4487020;31;20116;-79
2022/09/09 11:10:25;;;;;;;3.72;1.00;;;;;;;26.18;35.75;98452.22;4480838;31;20108;-81
2022/09/09 11:12:54;;;;;;;2.60;1.10;;;;;;;26.29;36.13;98451.72;4478518;32;20148;-81
2022/09/09 11:15:33;;;;;;;2.12;1.00;;;;;;;26.31;35.97;98454.22;4474744;32;20084;-81
2022/09/09 11:18:01;;;;;;;1.60;0.80;;;;;;;26.25;36.84;98452.25;4480671;32;20088;-82
2022/09/09 11:20:27;;;;;;;3.55;1.10;;;;;;;26.27;35.98;98447.53;4477727;31;20361;-82
2022/09/09 11:22:56;;;;;;;3.25;1.00;;;;;;;26.21;36.17;98451.84;4470012;32;20123;-80
2022/09/09 11:25:31;;;;;;;2.15;0.93;;;;;;;25.92;36.32;98446.53;4477442;32;20171;-81
2022/09/09 11:28:35;;;;;;;4.80;0.90;;;;;;;25.64;36.69;98445.34;4485388;31;20606;-81
2022/09/09 11:31:07;;;;;;;2.58;1.10;;;;;;;26.13;37.26;98441.16;4466168;32;20792;-82
2022/09/09 11:33:48;;;;;;;1.92;1.00;;;;;;;26.11;37.14;98443.19;4479262;31;20148;-80
2022/09/09 11:36:39;;;;;;;2.03;0.93;;;;;;;26.36;37.50;98437.44;4482953;32;20395;-82
2022/09/09 11:39:29;;;;;;;2.25;1.00;;;;;;;26.80;36.79;98439.91;4475361;32;20077;-81
2022/09/09 11:42:15;;;;;;;4.07;1.20;;;;;;;26.88;37.31;98445.16;4480968;31;20108;-83
2022/09/09 11:44:41;;;;;;;4.78;1.10;;;;;;;26.40;37.57;98444.09;4485237;31;20092;-84
2022/09/09 11:47:31;;;;;;;3.35;1.17;;;;;;;26.66;37.47;98440.84;4478833;32;20399;-82
2022/09/09 11:50:14;;;;;;;2.25;0.90;;;;;;;26.74;36.99;98424.47;4480895;32;20092;-82
2022/09/09 11:52:47;;;;;;;2.40;1.02;;;;;;;26.75;36.05;98436.13;4473418;32;20108;-82
2022/09/09 11:55:34;;;;;;;3.83;1.33;;;;;;;26.77;35.91;98440.31;4481551;31;20108;-83